Time;durP1;ratioP1;P1;durP2;ratioP2;P2;SDS_P1;SDS_P2;PMS_P1;PMS_P2;Temp;Humidity;BMP_temperature;BMP_pressure;BME280_temperature;BME280_humidity;BME280_pressure;Samples;Min_cycle;Max_cycle;Signal;HPM_P1;HPM_P2
2023/04/27 00:00:36;;;;;;;14.53;4.43;;;10.10;75.50;;;10.10;49.67;94659.31;4997385;28;20493;-64
2023/04/27 00:03:04;;;;;;;17.70;2.50;;;10.10;75.20;;;10.05;49.95;94655.34;4995070;28;20470;-54
2023/04/27 00:05:34;;;;;;;19.83;2.00;;;10.10;75.60;;;10.02;49.85;94662.66;4994990;28;20611;-56
2023/04/27 00:08:02;;;;;;;8.10;2.30;;;10.00;75.60;;;9.99;50.34;94663.78;4997677;28;20501;-63
2023/04/27 00:10:31;;;;;;;6.53;1.90;;;10.00;76.50;;;9.98;50.65;94662.13;4993095;28;20455;-63
2023/04/27 00:12:58;;;;;;;5.70;2.57;;;10.00;77.20;;;9.96;50.52;94665.84;5001167;28;20556;-63
2023/04/27 00:15:25;;;;;;;3.00;2.03;;;9.90;77.30;;;9.94;50.62;94662.53;4993494;28;20442;-63
2023/04/27 00:17:52;;;;;;;8.73;3.13;;;9.90;77.50;;;9.92;50.14;94662.69;4992796;28;20545;-63
2023/04/27 00:20:20;;;;;;;8.63;2.43;;;9.90;76.90;;;9.90;49.67;94675.13;4995591;28;20453;-54
2023/04/27 00:22:47;;;;;;;4.70;2.17;;;9.90;76.30;;;9.87;49.74;94676.22;4991253;28;20612;-56
2023/04/27 00:25:15;;;;;;;4.80;2.20;;;9.90;76.60;;;9.84;50.78;94679.13;4997985;28;20451;-64
2023/04/27 00:27:44;;;;;;;12.80;3.10;;;9.90;78.50;;;9.83;50.53;94674.03;4997978;28;20482;-57
2023/04/27 00:30:12;;;;;;;3.80;2.30;;;9.80;77.60;;;9.82;50.45;94669.72;4993913;28;20467;-63
2023/04/27 00:32:41;;;;;;;2.77;2.13;;;9.80;78.10;;;9.80;50.60;94669.88;4992470;28;20482;-62
2023/04/27 00:35:09;;;;;;;6.30;1.83;;;9.80;78.00;;;9.79;50.86;94676.13;4993789;28;20515;-55
2023/04/27 00:37:36;;;;;;;13.07;2.33;;;9.80;78.10;;;9.75;50.46;94669.47;4995880;28;20521;-62
2023/04/27 00:40:06;;;;;;;3.20;1.83;;;9.70;77.50;;;9.71;50.49;94669.88;4996908;28;20484;-64
2023/04/27 00:42:34;;;;;;;4.07;2.10;;;9.70;77.60;;;9.63;49.32;94665.34;4992570;28;20506;-54
2023/04/27 00:45:04;;;;;;;2.90;1.90;;;9.60;75.30;;;9.55;50.25;94671.28;4994498;28;20815;-57
2023/04/27 00:47:31;;;;;;;5.37;1.90;;;9.60;77.00;;;9.50;50.33;94669.06;4994202;28;20474;-64
2023/04/27 00:49:58;;;;;;;4.40;2.20;;;9.50;77.20;;;9.47;50.62;94671.16;4992608;28;20569;-54
2023/04/27 00:52:26;;;;;;;5.87;2.23;;;9.50;77.90;;;9.45;50.40;94679.16;4991048;28;20474;-57
2023/04/27 00:54:53;;;;;;;14.67;2.57;;;9.50;77.70;;;9.43;51.16;94675.00;4993888;28;20468;-64
2023/04/27 00:57:22;;;;;;;7.07;2.13;;;9.50;78.40;;;9.42;50.86;94670.72;4993022;28;20486;-55
2023/04/27 00:59:49;;;;;;;4.20;2.10;;;9.40;78.00;;;9.40;50.72;94675.28;4991722;28;20462;-56
2023/04/27 01:02:18;;;;;;;16.37;2.07;;;9.40;78.20;;;9.38;51.63;94670.16;4996063;28;21021;-62
2023/04/27 01:04:45;;;;;;;5.00;2.37;;;9.40;79.10;;;9.37;51.09;94679.00;4994510;28;20485;-55
2023/04/27 01:07:13;;;;;;;3.13;2.23;;;9.40;78.60;;;9.35;51.13;94677.50;4991979;28;20471;-59
2023/04/27 01:09:40;;;;;;;3.93;2.40;;;9.40;78.70;;;9.32;50.99;94683.84;4993942;28;20453;-62
2023/04/27 01:12:08;;;;;;;2.90;2.10;;;9.30;78.40;;;9.30;51.20;94686.59;4993645;28;20478;-63
2023/04/27 01:14:36;;;;;;;4.27;1.93;;;9.30;78.60;;;9.27;51.10;94684.25;4995545;28;20454;-55
2023/04/27 01:17:04;;;;;;;6.67;3.33;;;9.30;78.90;;;9.26;51.14;94690.44;4992735;28;20583;-55
2023/04/27 01:19:33;;;;;;;9.47;3.17;;;9.30;79.00;;;9.23;51.16;94682.84;4993732;28;20445;-57
2023/04/27 01:22:00;;;;;;;6.63;2.60;;;9.20;79.10;;;9.21;51.66;94679.53;4995955;28;21061;-64
2023/04/27 01:24:29;;;;;;;4.90;2.30;;;9.30;79.60;;;9.19;51.56;94685.91;4991613;28;20575;-64
2023/04/27 01:26:56;;;;;;;9.00;2.73;;;9.20;79.10;;;9.15;51.12;94686.19;4995000;28;20466;-57
2023/04/27 01:29:23;;;;;;;4.90;2.50;;;9.20;78.80;;;9.13;51.08;94687.28;4994550;28;20454;-64
2023/04/27 01:31:51;;;;;;;7.37;2.43;;;9.20;79.10;;;9.10;51.44;94693.59;4993093;28;20498;-63
2023/04/27 01:34:18;;;;;;;9.20;2.63;;;9.10;79.10;;;9.08;51.40;94690.31;4993662;28;20458;-63
2023/04/27 01:36:45;;;;;;;5.10;2.20;;;9.10;79.50;;;9.07;52.09;94700.94;4993338;28;20484;-57
2023/04/27 01:39:13;;;;;;;3.70;2.17;;;9.10;80.00;;;9.04;52.03;94694.16;4992018;28;20467;-64
2023/04/27 01:41:41;;;;;;;2.43;2.17;;;9.10;80.00;;;9.04;52.41;94702.03;4995168;28;20501;-56
2023/04/27 01:44:09;;;;;;;2.40;1.80;;;9.10;80.60;;;9.01;52.06;94702.28;4992383;28;20497;-63
2023/04/27 01:46:36;;;;;;;5.57;2.40;;;9.10;79.80;;;9.00;52.10;94707.66;4990433;28;20468;-56
2023/04/27 01:49:03;;;;;;;3.40;2.20;;;9.00;80.20;;;8.98;52.04;94702.56;4990046;28;20468;-55
2023/04/27 01:51:31;;;;;;;5.77;2.40;;;9.00;80.00;;;8.95;52.00;94706.28;4993376;28;20474;-55
2023/04/27 01:53:59;;;;;;;13.20;2.37;;;9.00;80.30;;;8.94;52.39;94704.63;4998038;28;20542;-56
2023/04/27 01:56:26;;;;;;;5.73;2.83;;;9.00;80.70;;;8.94;52.07;94709.88;4986153;28;20518;-64
2023/04/27 01:58:55;;;;;;;5.33;2.33;;;9.00;80.90;;;8.94;52.03;94699.38;4989387;28;20843;-63
2023/04/27 02:01:22;;;;;;;6.63;2.80;;;9.00;80.60;;;8.93;52.25;94697.72;4994977;28;20468;-56
2023/04/27 02:03:49;;;;;;;9.40;2.50;;;9.00;80.90;;;8.92;52.37;94703.09;4992741;28;20497;-63
2023/04/27 02:06:16;;;;;;;2.60;2.10;;;9.00;80.70;;;8.91;52.46;94709.31;4993107;28;20477;-57
2023/04/27 02:08:44;;;;;;;7.80;2.50;;;9.00;80.90;;;8.90;52.53;94700.59;4991577;28;20485;-63
2023/04/27 02:11:11;;;;;;;9.40;2.17;;;8.90;81.20;;;8.89;52.14;94709.44;4991281;28;20471;-55
2023/04/27 02:13:39;;;;;;;7.00;2.87;;;8.90;80.90;;;8.89;52.35;94709.44;4991907;28;20518;-63
2023/04/27 02:16:08;;;;;;;8.10;2.23;;;9.00;80.80;;;8.88;52.01;94705.16;4991263;28;20463;-64
2023/04/27 02:18:35;;;;;;;9.70;3.30;;;8.90;80.60;;;8.87;52.67;94707.91;4991171;28;20470;-63
2023/04/27 02:21:08;;;;;;;4.17;2.50;;;8.90;81.80;;;8.85;52.34;94715.91;4990521;28;20538;-55
2023/04/27 02:23:35;;;;;;;3.20;2.03;;;8.90;80.30;;;8.83;52.41;94712.63;4990308;28;20961;-61
2023/04/27 02:26:03;;;;;;;3.90;1.90;;;8.90;80.60;;;8.84;52.28;94709.00;4989790;28;20454;-63
2023/04/27 02:28:31;;;;;;;9.47;2.20;;;8.90;81.00;;;8.84;52.33;94714.25;4992361;28;20482;-56
2023/04/27 02:30:58;;;;;;;5.80;2.13;;;8.90;81.20;;;8.85;52.18;94712.47;4997880;28;20580;-63
2023/04/27 02:33:27;;;;;;;7.20;2.10;;;8.90;80.40;;;8.83;51.99;94717.84;4996885;28;20630;-63
2023/04/27 02:35:54;;;;;;;7.53;2.20;;;8.90;79.70;;;8.83;51.87;94722.25;4988342;28;20462;-64
2023/04/27 02:38:22;;;;;;;2.80;2.00;;;8.80;79.70;;;8.81;51.43;94714.50;4999042;28;20473;-57
2023/04/27 02:40:54;;;;;;;3.47;2.10;;;8.90;79.80;;;8.82;51.67;94716.19;5000431;28;20454;-56
2023/04/27 02:43:22;;;;;;;7.70;2.97;;;8.80;79.70;;;8.81;51.61;94730.25;4998732;28;20494;-64
2023/04/27 02:45:49;;;;;;;8.40;2.23;;;8.80;79.70;;;8.80;51.75;94723.38;4998743;28;20446;-64
2023/04/27 02:48:17;;;;;;;5.50;2.40;;;8.90;80.10;;;8.82;51.94;94723.22;4997108;28;20482;-62
2023/04/27 02:50:45;;;;;;;4.60;2.10;;;8.80;79.70;;;8.81;51.78;94725.00;4996574;28;20454;-55
2023/04/27 02:53:13;;;;;;;8.13;2.40;;;8.80;79.50;;;8.78;51.36;94725.28;4995642;28;20871;-64
2023/04/27 02:55:46;;;;;;;3.80;2.53;;;8.80;79.60;;;8.76;51.35;94725.41;4995450;28;20555;-64
2023/04/27 02:58:13;;;;;;;15.63;2.47;;;8.80;79.60;;;8.76;51.61;94721.97;4994452;28;20560;-56
2023/04/27 03:00:41;;;;;;;4.70;2.30;;;8.80;79.70;;;8.73;51.91;94732.72;4994932;28;20462;-64
2023/04/27 03:03:08;;;;;;;5.70;2.60;;;8.80;79.90;;;8.73;51.80;94727.47;4996699;28;20497;-64
2023/04/27 03:05:36;;;;;;;4.50;2.37;;;8.80;80.40;;;8.72;52.35;94734.50;4991075;28;20584;-65
2023/04/27 03:08:05;;;;;;;4.10;2.87;;;8.80;80.50;;;8.72;51.89;94728.41;4994299;28;20934;-55
2023/04/27 03:10:32;;;;;;;8.53;2.53;;;8.80;80.30;;;8.71;51.68;94739.88;4998903;28;20970;-56
2023/04/27 03:13:00;;;;;;;3.83;2.17;;;8.70;79.60;;;8.66;51.88;94734.19;4993153;28;21022;-65
2023/04/27 03:15:27;;;;;;;6.87;2.60;;;8.70;79.60;;;8.61;52.17;94732.81;4999487;28;20508;-56
2023/04/27 03:17:54;;;;;;;3.47;2.50;;;8.70;80.00;;;8.59;52.17;94736.50;4992596;28;20492;-63
2023/04/27 03:20:22;;;;;;;3.83;2.57;;;8.70;80.00;;;8.56;52.00;94745.47;4994573;28;20480;-64
2023/04/27 03:22:49;;;;;;;4.13;2.33;;;8.60;79.80;;;8.54;51.61;94744.78;4991115;28;20497;-65
2023/04/27 03:25:18;;;;;;;4.60;2.30;;;8.60;79.50;;;8.52;52.03;94743.22;4992159;28;20577;-55
2023/04/27 03:27:45;;;;;;;5.83;2.30;;;8.60;80.10;;;8.51;52.56;94750.28;4995573;28;20473;-64
2023/04/27 03:30:14;;;;;;;8.30;3.00;;;8.60;80.30;;;8.51;52.42;94752.91;4992718;28;20458;-64
2023/04/27 03:32:41;;;;;;;8.10;3.23;;;8.60;80.40;;;8.49;52.25;94757.44;4999275;28;21119;-56
2023/04/27 03:35:09;;;;;;;7.47;2.47;;;8.50;80.00;;;8.48;51.91;94757.56;4995731;28;20450;-64
2023/04/27 03:37:36;;;;;;;9.90;2.50;;;8.50;80.10;;;8.45;51.50;94756.03;4995190;28;20887;-57
2023/04/27 03:40:06;;;;;;;9.83;2.30;;;8.50;79.70;;;8.41;51.99;94755.44;4996698;28;20491;-56
2023/04/27 03:42:34;;;;;;;3.83;1.90;;;8.50;79.50;;;8.37;51.95;94764.50;4996559;28;20551;-57
2023/04/27 03:45:02;;;;;;;3.77;2.20;;;8.40;79.30;;;8.31;51.85;94764.22;4990076;28;20890;-65
2023/04/27 03:47:29;;;;;;;8.40;2.07;;;8.40;79.20;;;8.25;51.99;94774.22;4994797;28;20831;-64
2023/04/27 03:49:57;;;;;;;3.50;2.33;;;8.30;79.20;;;8.20;51.76;94768.53;4992243;28;21297;-57
2023/04/27 03:52:25;;;;;;;3.27;2.80;;;8.30;79.30;;;8.19;51.94;94772.09;4990563;28;20489;-56
2023/04/27 03:54:52;;;;;;;10.33;3.60;;;8.20;79.50;;;8.17;51.99;94781.06;4944842;28;1214064;-65
2023/04/27 03:57:20;;;;;;;3.73;2.50;;;8.20;79.50;;;8.16;51.93;94784.63;4997026;28;20563;-57
2023/04/27 03:59:49;;;;;;;4.10;2.67;;;8.20;79.10;;;8.15;52.26;94791.69;4997985;28;20921;-65
2023/04/27 04:02:17;;;;;;;2.63;2.33;;;8.20;80.00;;;8.15;51.78;94786.44;4994642;28;20557;-64
2023/04/27 04:04:44;;;;;;;4.97;2.93;;;8.20;80.10;;;8.16;52.47;94795.94;4995216;28;20447;-65
2023/04/27 04:07:11;;;;;;;13.53;2.70;;;8.20;81.00;;;8.16;52.24;94795.94;4990299;28;20690;-64
2023/04/27 04:09:39;;;;;;;15.20;3.73;;;8.20;80.60;;;8.19;52.47;94803.53;4997615;28;20453;-57
2023/04/27 04:12:07;;;;;;;5.47;3.57;;;8.20;81.20;;;8.21;53.24;94804.28;4994690;28;20473;-57
2023/04/27 04:14:34;;;;;;;6.30;2.77;;;8.20;81.40;;;8.24;52.54;94801.41;4993665;28;20485;-66
2023/04/27 04:17:03;;;;;;;15.10;2.90;;;8.30;81.40;;;8.29;52.91;94806.25;4993057;28;20908;-57
2023/04/27 04:19:30;;;;;;;7.67;4.23;;;8.30;81.00;;;8.30;52.22;94815.75;4995452;28;20477;-58
2023/04/27 04:21:57;;;;;;;10.30;2.87;;;8.30;80.70;;;8.31;52.09;94814.00;4996563;28;20477;-63
2023/04/27 04:24:25;;;;;;;4.80;2.90;;;8.30;80.60;;;8.30;52.07;94818.38;4993895;28;20461;-64
2023/04/27 04:26:52;;;;;;;9.53;3.93;;;8.30;80.40;;;8.32;52.19;94815.63;4995650;28;20975;-64
2023/04/27 04:29:20;;;;;;;10.37;3.27;;;8.30;80.20;;;8.35;51.88;94818.00;4996130;28;20458;-55
2023/04/27 04:31:47;;;;;;;6.00;2.90;;;8.30;80.40;;;8.37;52.34;94818.72;4994192;28;20516;-64
2023/04/27 04:34:16;;;;;;;8.23;3.10;;;8.40;80.30;;;8.36;52.10;94822.28;4992813;28;20839;-58
2023/04/27 04:36:44;;;;;;;4.53;2.60;;;8.40;79.90;;;8.37;52.79;94819.53;4996055;28;20496;-63
2023/04/27 04:39:12;;;;;;;5.53;3.03;;;8.40;81.20;;;8.41;52.48;94834.06;4994433;28;20514;-64
2023/04/27 04:41:39;;;;;;;4.20;2.63;;;8.40;80.90;;;8.46;52.10;94831.09;4994083;28;20447;-64
2023/04/27 04:44:06;;;;;;;6.23;3.63;;;8.50;81.50;;;8.51;52.14;94822.84;4995017;28;20567;-55
2023/04/27 04:46:36;;;;;;;3.27;2.93;;;8.50;81.10;;;8.56;52.43;94831.97;4993652;28;20454;-56
2023/04/27 04:49:03;;;;;;;7.93;2.97;;;8.60;81.20;;;8.63;52.20;94834.94;4997622;28;20522;-57
2023/04/27 04:51:32;;;;;;;5.67;3.50;;;8.60;81.20;;;8.70;52.70;94838.69;4992563;28;20454;-56
2023/04/27 04:53:59;;;;;;;7.80;3.00;;;8.70;81.70;;;8.76;52.49;94837.34;4991808;28;20461;-64
2023/04/27 04:56:26;;;;;;;7.73;3.93;;;8.80;81.80;;;8.84;52.75;94844.56;4989712;28;20471;-57
2023/04/27 04:58:53;;;;;;;9.80;3.60;;;8.80;81.80;;;8.87;52.29;94839.88;4991598;28;20467;-58
2023/04/27 05:01:21;;;;;;;5.13;3.20;;;8.90;81.50;;;8.93;52.43;94847.22;4994444;28;20461;-66
2023/04/27 05:03:48;;;;;;;3.70;3.03;;;8.90;81.70;;;9.01;52.75;94851.00;4987913;28;20564;-57
2023/04/27 05:06:15;;;;;;;3.77;2.50;;;9.00;81.90;;;9.08;52.69;94846.91;4992315;28;20545;-58
2023/04/27 05:08:44;;;;;;;3.43;3.13;;;9.10;81.70;;;9.13;52.17;94844.69;4993625;28;20490;-57
2023/04/27 05:11:12;;;;;;;6.57;2.80;;;9.10;81.20;;;9.18;52.09;94850.38;4988731;28;21006;-65
2023/04/27 05:13:40;;;;;;;9.77;3.77;;;9.20;81.00;;;9.24;51.99;94849.03;4991451;28;21039;-55
2023/04/27 05:16:08;;;;;;;5.97;3.30;;;9.20;80.80;;;9.31;52.27;94858.00;4996077;28;20456;-58
2023/04/27 05:18:36;;;;;;;3.67;3.30;;;9.30;81.10;;;9.41;51.48;94852.81;4992488;28;20474;-66
2023/04/27 05:21:03;;;;;;;14.10;5.00;;;9.40;80.60;;;9.48;51.50;94854.78;4989399;28;20537;-57
2023/04/27 05:23:30;;;;;;;12.03;3.97;;;9.50;80.50;;;9.58;51.24;94862.69;4997235;28;20501;-57
2023/04/27 05:25:59;;;;;;;8.60;3.93;;;9.50;79.80;;;9.66;50.97;94862.81;4994670;28;20914;-57
2023/04/27 05:28:27;;;;;;;14.93;3.60;;;9.60;79.50;;;9.74;50.56;94856.09;4995621;28;20476;-58
2023/04/27 05:30:54;;;;;;;10.90;3.40;;;9.70;78.60;;;9.80;50.50;94859.00;4993610;28;20467;-56
2023/04/27 05:33:21;;;;;;;8.60;2.97;;;9.80;78.50;;;9.83;49.76;94858.72;4993678;28;20561;-57
2023/04/27 05:35:48;;;;;;;7.00;3.60;;;9.80;77.10;;;9.85;50.44;94856.81;4994574;28;20453;-55
2023/04/27 05:38:16;;;;;;;6.77;3.50;;;9.80;77.80;;;9.86;50.60;94861.06;4991875;28;20478;-66
2023/04/27 05:40:43;;;;;;;3.93;2.90;;;9.90;78.20;;;9.90;50.07;94868.69;4994030;28;20977;-57
2023/04/27 05:43:12;;;;;;;6.90;3.10;;;9.90;77.50;;;9.93;50.16;94869.28;4996536;28;20524;-57
2023/04/27 05:45:40;;;;;;;4.10;3.10;;;9.90;78.00;;;9.95;50.09;94869.13;4993237;28;20812;-67
2023/04/27 05:48:08;;;;;;;4.47;3.00;;;9.90;77.50;;;9.99;49.15;94863.47;4991424;28;20899;-68
2023/04/27 05:50:35;;;;;;;13.73;3.50;;;10.00;75.60;;;10.02;50.06;94871.06;4995032;28;20454;-56
2023/04/27 05:53:04;;;;;;;4.17;3.37;;;10.00;76.50;;;10.07;49.94;94869.81;4994177;28;20902;-66
2023/04/27 05:55:31;;;;;;;14.30;4.30;;;10.00;76.30;;;10.14;49.97;94873.56;4991347;28;20469;-67
2023/04/27 05:57:59;;;;;;;12.50;3.73;;;10.10;76.40;;;10.19;49.29;94871.34;4993918;28;20473;-65
2023/04/27 06:00:28;;;;;;;5.30;3.00;;;10.10;74.90;;;10.25;49.52;94872.59;4994333;28;20486;-58
2023/04/27 06:02:55;;;;;;;17.73;3.17;;;10.20;75.70;;;10.34;49.58;94874.44;5000652;28;20517;-67
2023/04/27 06:05:23;;;;;;;3.57;3.13;;;10.30;75.60;;;10.42;48.82;94876.38;4995707;28;20915;-66
2023/04/27 06:07:50;;;;;;;5.00;2.50;;;10.40;74.10;;;10.48;47.98;94878.47;4995698;28;20473;-66
2023/04/27 06:10:18;;;;;;;7.17;3.00;;;10.40;72.90;;;10.54;48.44;94883.97;4992551;28;20546;-57
2023/04/27 06:12:46;;;;;;;13.20;4.00;;;10.50;73.10;;;10.63;48.85;94876.22;4993776;28;20482;-66
2023/04/27 06:15:13;;;;;;;4.90;2.40;;;10.60;74.00;;;10.76;47.95;94877.59;4996623;28;20531;-58
2023/04/27 06:17:42;;;;;;;12.47;3.37;;;10.70;72.70;;;10.87;47.92;94868.69;4989156;28;20496;-57
2023/04/27 06:20:10;;;;;;;8.10;2.77;;;10.80;72.50;;;10.96;46.93;94861.78;4991774;28;20525;-58
2023/04/27 06:22:38;;;;;;;6.00;3.50;;;10.90;71.50;;;11.12;47.76;94864.66;4991183;28;21029;-56
2023/04/27 06:25:06;;;;;;;4.63;2.80;;;11.00;72.50;;;11.26;47.19;94867.78;4990531;28;20454;-59
2023/04/27 06:27:33;;;;;;;18.67;3.50;;;11.20;71.50;;;11.40;47.01;94864.69;4994156;28;20485;-67
2023/04/27 06:30:00;;;;;;;5.73;2.80;;;11.30;71.20;;;11.51;46.21;94860.19;4993936;28;20457;-57
2023/04/27 06:32:28;;;;;;;5.47;3.03;;;11.40;69.50;;;11.57;46.88;94859.59;4990541;28;20469;-67
2023/04/27 06:34:56;;;;;;;6.10;2.47;;;11.40;70.30;;;11.65;46.36;94851.81;4992558;28;20453;-57
2023/04/27 06:37:24;;;;;;;5.70;2.90;;;11.50;69.80;;;11.74;46.71;94855.34;4992058;28;20472;-67
2023/04/27 06:39:51;;;;;;;4.70;2.80;;;11.60;70.90;;;11.83;46.29;94862.38;4994154;28;20455;-57
2023/04/27 06:42:18;;;;;;;7.43;2.20;;;11.70;70.00;;;11.96;44.76;94864.69;4993407;28;20496;-67
2023/04/27 06:44:46;;;;;;;7.40;3.40;;;11.80;67.90;;;12.11;46.04;94857.09;4992845;28;20832;-66
2023/04/27 06:47:13;;;;;;;5.13;2.90;;;11.90;69.10;;;12.35;45.13;94848.59;4991449;28;20506;-55
2023/04/27 06:49:41;;;;;;;7.57;3.03;;;12.10;68.50;;;12.59;44.70;94850.59;4990485;28;20466;-68
2023/04/27 06:52:10;;;;;;;7.87;2.70;;;12.40;67.70;;;12.81;44.13;94843.19;4996030;28;20879;-57
2023/04/27 06:54:37;;;;;;;4.93;2.27;;;12.60;65.50;;;13.05;43.96;94850.47;4991438;28;20977;-59
2023/04/27 06:57:05;;;;;;;6.73;3.03;;;12.80;65.70;;;13.29;44.81;94847.09;4995284;28;21041;-67
2023/04/27 06:59:32;;;;;;;4.40;2.80;;;13.10;67.60;;;13.54;44.44;94847.25;4992152;28;20466;-67
2023/04/27 07:01:59;;;;;;;4.17;2.50;;;13.30;67.70;;;13.71;43.75;94856.09;4993166;28;20478;-68
2023/04/27 07:04:27;;;;;;;5.33;2.97;;;13.50;66.40;;;13.85;42.42;94844.91;4995325;28;20498;-67
2023/04/27 07:06:55;;;;;;;7.43;2.13;;;13.60;63.90;;;14.04;40.90;94840.34;4998850;28;20512;-68
2023/04/27 07:09:24;;;;;;;11.07;3.37;;;13.80;60.50;;;14.18;41.83;94836.25;4990305;28;20455;-67
2023/04/27 07:11:51;;;;;;;5.93;2.90;;;13.90;62.00;;;14.39;41.63;94833.09;4995314;28;20469;-58
2023/04/27 07:14:19;;;;;;;3.93;2.40;;;14.10;60.90;;;14.61;40.54;94840.44;4994689;28;20449;-67
2023/04/27 07:16:46;;;;;;;3.20;2.57;;;14.30;59.80;;;14.78;37.95;94837.78;4997501;28;20982;-58
2023/04/27 07:19:13;;;;;;;4.47;3.07;;;14.50;57.40;;;14.86;39.99;94851.03;4996815;28;20463;-68
2023/04/27 07:21:41;;;;;;;5.33;3.20;;;14.60;58.60;;;15.05;40.40;94847.19;4995942;28;20997;-58
2023/04/27 07:24:09;;;;;;;5.40;2.53;;;14.80;59.80;;;15.20;37.90;94842.84;4997337;28;20948;-68
2023/04/27 07:26:38;;;;;;;3.83;2.00;;;14.90;55.70;;;15.34;39.79;94843.97;4999921;28;20453;-67
2023/04/27 07:29:05;;;;;;;7.10;3.83;;;15.10;58.70;;;15.51;39.68;94842.13;4997296;28;20891;-58
2023/04/27 07:31:33;;;;;;;4.23;2.37;;;15.20;58.60;;;15.69;37.90;94841.03;4997215;28;20457;-57
2023/04/27 07:34:00;;;;;;;4.30;2.90;;;15.40;56.10;;;15.81;36.78;94834.41;4994896;28;20453;-58
2023/04/27 07:36:28;;;;;;;6.70;2.63;;;15.60;55.00;;;15.76;34.61;94837.53;4993391;28;20442;-67
2023/04/27 07:38:57;;;;;;;6.30;2.80;;;15.60;51.60;;;15.66;35.90;94834.28;4997043;28;20832;-58
2023/04/27 07:41:24;;;;;;;4.27;2.70;;;15.50;52.90;;;15.55;36.91;94835.47;4995123;28;20489;-57
2023/04/27 07:43:53;;;;;;;8.93;2.63;;;15.40;53.50;;;15.56;38.16;94836.28;4995250;28;20504;-68
2023/04/27 07:46:20;;;;;;;10.27;2.90;;;15.40;55.60;;;15.75;38.08;94841.19;4990787;28;20542;-57
2023/04/27 07:48:49;;;;;;;7.77;2.30;;;15.50;55.70;;;16.03;38.04;94842.56;4995569;28;20542;-67
2023/04/27 07:51:16;;;;;;;4.87;1.70;;;15.70;55.90;;;16.37;38.17;94833.41;4993271;28;20455;-68
2023/04/27 07:53:45;;;;;;;3.63;2.83;;;16.00;56.60;;;16.70;37.50;94835.81;4996119;28;20622;-68
2023/04/27 07:56:12;;;;;;;4.00;2.57;;;16.30;55.20;;;17.04;37.07;94838.06;4999818;28;20450;-58
2023/04/27 07:58:40;;;;;;;5.90;3.00;;;16.70;54.30;;;17.35;37.42;94826.44;5001143;28;20513;-58
2023/04/27 08:01:09;;;;;;;2.57;2.10;;;17.00;55.20;;;17.61;34.09;94825.16;4992704;28;20916;-68
2023/04/27 08:03:36;;;;;;;3.30;2.30;;;17.30;50.70;;;17.79;34.92;94832.78;4997659;28;20518;-57
2023/04/27 08:06:04;;;;;;;4.30;2.20;;;17.50;52.00;;;18.00;36.03;94837.34;4995583;28;20461;-58
2023/04/27 08:08:32;;;;;;;5.87;2.23;;;17.70;52.70;;;18.19;34.30;94835.94;4995631;28;20474;-67
2023/04/27 08:10:59;;;;;;;4.27;2.30;;;17.80;51.40;;;18.22;34.33;94836.38;4993955;28;20457;-67
2023/04/27 08:13:27;;;;;;;7.03;2.67;;;17.90;49.60;;;18.27;33.38;94849.94;4994449;28;21026;-57
2023/04/27 08:15:57;;;;;;;4.97;1.97;;;18.10;49.10;;;18.37;33.93;94843.50;4995068;28;20465;-59
2023/04/27 08:18:26;;;;;;;3.23;2.60;;;18.10;49.40;;;18.55;35.06;94841.22;4993301;28;20498;-68
2023/04/27 08:20:53;;;;;;;2.70;2.50;;;18.20;51.80;;;18.77;35.03;94842.03;4994842;28;20472;-68
2023/04/27 08:23:21;;;;;;;6.13;2.77;;;18.50;51.70;;;18.97;34.44;94836.91;4997073;28;20544;-58
2023/04/27 08:25:48;;;;;;;2.70;2.00;;;18.60;51.60;;;19.12;34.27;94830.69;4993364;28;21001;-68
2023/04/27 08:28:15;;;;;;;3.93;2.23;;;18.80;51.10;;;19.26;33.55;94840.41;4991195;28;20480;-58
2023/04/27 08:30:43;;;;;;;5.30;2.20;;;18.90;49.40;;;19.34;34.06;94832.25;4995916;28;20450;-69
2023/04/27 08:33:10;;;;;;;5.07;2.40;;;19.00;50.10;;;19.40;33.02;94836.00;4994965;28;20512;-68
2023/04/27 08:35:39;;;;;;;3.10;2.50;;;19.10;48.90;;;19.34;33.49;94826.94;4993320;28;20587;-67
2023/04/27 08:38:06;;;;;;;5.67;2.50;;;19.10;48.90;;;19.20;33.62;94825.19;4991401;28;20476;-66
2023/04/27 08:40:34;;;;;;;5.53;3.00;;;19.00;49.50;;;19.09;33.28;94823.88;4991806;28;20531;-67
2023/04/27 08:43:01;;;;;;;8.00;2.00;;;18.90;49.40;;;19.07;34.03;94830.41;4993110;28;20560;-68
2023/04/27 08:45:28;;;;;;;4.43;3.00;;;18.80;49.30;;;19.06;32.91;94840.28;4994906;28;20489;-57
2023/04/27 08:47:56;;;;;;;4.27;2.43;;;18.80;47.70;;;19.03;32.87;94823.84;4995472;28;20557;-68
2023/04/27 08:50:23;;;;;;;3.93;2.27;;;18.80;47.60;;;19.04;33.35;94830.81;4987641;28;20458;-57
2023/04/27 08:52:52;;;;;;;4.80;2.23;;;18.80;48.80;;;19.12;33.78;94828.03;4993775;28;20902;-58
2023/04/27 08:55:19;;;;;;;3.97;1.47;;;18.80;49.40;;;19.27;33.16;94820.75;4994189;28;20524;-57
2023/04/27 08:57:57;;;;;;;5.67;2.10;;;18.90;48.20;;;19.48;32.47;94827.03;4991847;28;20511;-58
2023/04/27 09:00:25;;;;;;;6.83;2.10;;;19.10;48.40;;;19.75;33.22;94822.66;4992898;28;20479;-59
2023/04/27 09:02:53;;;;;;;6.50;2.73;;;19.40;49.20;;;19.93;32.30;94837.34;4993456;28;20473;-66
2023/04/27 09:05:21;;;;;;;6.53;3.30;;;19.60;47.80;;;20.11;33.22;94832.28;4993834;28;20505;-67
2023/04/27 09:08:09;;;;;;;5.10;3.03;;;19.80;49.00;;;20.14;31.44;94823.88;4996225;28;20485;-68
2023/04/27 09:10:46;;;;;;;8.20;3.00;;;19.80;47.10;;;20.11;30.95;94826.94;4996519;28;20486;-68
2023/04/27 09:13:14;;;;;;;7.87;4.30;;;19.80;46.10;;;20.09;32.72;94830.81;4992593;28;20477;-57
2023/04/27 09:15:46;;;;;;;4.40;2.33;;;19.80;47.50;;;20.15;32.53;94824.69;4994729;28;20517;-56
2023/04/27 09:18:17;;;;;;;5.87;1.83;;;19.80;47.90;;;20.26;32.44;94829.44;4998564;28;20473;-57
2023/04/27 09:20:45;;;;;;;4.07;2.47;;;19.90;48.00;;;20.25;31.73;94825.16;4992667;28;20534;-67
2023/04/27 09:23:28;;;;;;;2.50;1.80;;;19.90;46.00;;;20.14;31.13;94820.34;4997510;28;20580;-58
2023/04/27 09:25:56;;;;;;;3.00;2.13;;;19.90;46.80;;;20.05;31.84;94825.88;4997412;28;20482;-58
2023/04/27 09:28:24;;;;;;;6.70;1.70;;;19.80;46.70;;;19.97;30.09;94825.22;4986594;28;20572;-57
2023/04/27 09:30:53;;;;;;;3.40;2.20;;;19.70;44.10;;;19.86;31.61;94818.59;4995503;28;20990;-67
2023/04/27 09:33:23;;;;;;;4.13;2.10;;;19.60;46.10;;;19.81;31.84;94819.19;4991661;28;20561;-68
2023/04/27 09:35:51;;;;;;;5.67;2.97;;;19.50;46.70;;;19.78;30.90;94816.13;4993861;28;20493;-57
2023/04/27 09:38:20;;;;;;;4.57;2.43;;;19.50;44.40;;;19.68;31.22;94803.94;4989136;28;20469;-58
2023/04/27 09:40:47;;;;;;;5.40;2.37;;;19.40;44.80;;;19.52;31.46;94801.59;4992462;28;20908;-58
2023/04/27 09:43:15;;;;;;;3.93;1.83;;;19.30;45.50;;;19.36;31.47;94794.72;4996032;28;20471;-57
2023/04/27 09:45:42;;;;;;;3.93;1.80;;;19.10;45.30;;;19.23;30.90;94798.16;4991479;28;20616;-69
2023/04/27 09:48:10;;;;;;;7.80;2.23;;;19.00;45.20;;;19.09;31.91;94791.91;4993339;28;20821;-58
2023/04/27 09:50:38;;;;;;;11.07;2.40;;;18.90;46.20;;;19.02;32.04;94791.00;4997204;28;20980;-58
2023/04/27 09:53:07;;;;;;;4.87;1.87;;;18.80;45.10;;;18.94;29.02;94796.50;4988630;28;20497;-57
2023/04/27 09:55:39;;;;;;;2.37;1.93;;;18.70;42.70;;;18.70;30.54;94792.38;4995929;28;20489;-68
2023/04/27 09:58:40;;;;;;;1.70;1.57;;;18.50;43.70;;;18.54;31.76;94788.94;4996420;28;20496;-58
2023/04/27 10:01:13;;;;;;;5.33;2.37;;;18.40;45.10;;;18.39;32.05;94790.88;4990036;28;20462;-57
2023/04/27 10:03:47;;;;;;;4.30;2.10;;;18.20;45.10;;;18.21;30.26;94789.47;4999390;28;20467;-68
2023/04/27 10:06:53;;;;;;;7.87;2.73;;;18.00;43.80;;;18.04;31.65;94788.06;4992911;28;20460;-67
2023/04/27 10:09:23;;;;;;;5.30;1.97;;;17.90;45.80;;;18.07;32.83;94787.69;4988093;28;20447;-64
2023/04/27 10:11:52;;;;;;;2.77;2.20;;;17.80;46.00;;;18.19;33.17;94788.03;4995125;28;20993;-58
2023/04/27 10:14:21;;;;;;;6.70;2.10;;;17.90;47.40;;;18.29;31.55;94780.53;4992129;28;20524;-58
2023/04/27 10:16:51;;;;;;;3.87;2.40;;;18.00;46.00;;;18.35;32.12;94785.09;4993785;28;20493;-68
2023/04/27 10:19:19;;;;;;;7.00;2.50;;;18.10;46.40;;;18.48;32.44;94778.25;4990368;28;20450;-68
2023/04/27 10:21:55;;;;;;;2.60;2.40;;;18.20;46.10;;;18.62;30.77;94785.34;4991209;28;20475;-67
2023/04/27 10:24:34;;;;;;;2.50;1.60;;;18.30;44.90;;;18.71;31.71;94786.84;4990358;28;20571;-67
2023/04/27 10:27:05;;;;;;;5.50;2.10;;;18.40;45.60;;;18.78;31.07;94781.59;4985883;28;20503;-67
2023/04/27 10:29:37;;;;;;;2.80;1.57;;;18.50;44.20;;;18.76;32.25;94780.94;4991674;28;20450;-58